Fresno, Texas
Current Conditions -  °F | °C
As of 1:15 PM on Saturday 25 Oct 2014 (Local Time) from KAXH Reporting Station
Clear Clear  
Wind Chill: 72°   Ceiling: Unl
Heat Index: 72°   Visibility: 10mi
Dew Point: 52°   Wind: 0mph
Humidity: 49%   Direction: NA
Pressure: 30.15"   Gusts: NA
Location:  29.54°N, 95.45°W
Report Text: KAXH 251815Z AUTO 00000KT 10SM CLR 22/11 A3015 RMK AO2 T02210110
Loading
Personal Weather Stations






























Interactive Weather Map
Tropical Storm Tracking
New forecast layout! Learn more

10-Day Weather Forecast

Advertisements
Track Severe Weather on mobile